Time;durP1;ratioP1;P1;durP2;ratioP2;P2;SDS_P1;SDS_P2;PMS_P1;PMS_P2;Temp;Humidity;BMP_temperature;BMP_pressure;BME280_temperature;BME280_humidity;BME280_pressure;Samples;Min_cycle;Max_cycle;Signal;HPM_P1;HPM_P2
2023/08/20 00:00:14;;;;;;;9.43;5.67;;;;;;;26.46;44.02;101237.91;5053090;28;20381;-70
2023/08/20 00:02:42;;;;;;;7.68;5.20;;;;;;;26.41;43.72;101231.63;5053028;28;20842;-71
2023/08/20 00:05:09;;;;;;;23.20;6.70;;;;;;;26.52;43.76;101238.75;5052391;28;20413;-71
2023/08/20 00:07:35;;;;;;;8.15;5.20;;;;;;;26.59;43.38;101241.22;5053499;28;20670;-70
2023/08/20 00:10:00;;;;;;;9.33;5.53;;;;;;;26.57;43.46;101238.75;5052977;28;20834;-70
2023/08/20 00:12:26;;;;;;;9.85;5.38;;;;;;;26.51;43.79;101239.84;5053058;28;20408;-71
2023/08/20 00:15:06;;;;;;;8.40;5.20;;;;;;;26.47;43.79;101239.53;5052868;28;20454;-70
2023/08/20 00:17:39;;;;;;;9.35;5.43;;;;;;;26.44;43.95;101241.97;5052322;28;20373;-70
2023/08/20 00:20:13;;;;;;;8.73;5.80;;;;;;;26.23;44.26;101239.13;5052656;28;20854;-71
2023/08/20 00:22:40;;;;;;;8.18;5.68;;;;;;;26.10;44.59;101236.88;5052644;28;20381;-71
2023/08/20 00:25:07;;;;;;;9.52;5.65;;;;;;;26.02;44.78;101250.91;5052850;28;20436;-71
2023/08/20 00:27:33;;;;;;;9.45;5.32;;;;;;;25.98;44.57;101247.09;5052853;28;20376;-71
2023/08/20 00:29:58;;;;;;;9.57;5.70;;;;;;;25.88;44.85;101236.97;5052815;28;20373;-71
2023/08/20 00:32:24;;;;;;;6.85;5.55;;;;;;;25.80;45.06;101230.09;5052174;28;20446;-71
2023/08/20 00:34:52;;;;;;;9.17;5.77;;;;;;;25.78;45.00;101239.59;5052259;28;20495;-71
2023/08/20 00:37:17;;;;;;;7.95;5.70;;;;;;;25.85;44.87;101232.03;5052475;28;20471;-71
2023/08/20 00:39:43;;;;;;;9.27;6.37;;;;;;;25.90;44.74;101241.03;5052660;28;20455;-71
2023/08/20 00:42:08;;;;;;;8.47;5.50;;;;;;;25.72;45.21;101233.28;5052348;28;20464;-70
2023/08/20 00:44:34;;;;;;;8.83;5.53;;;;;;;25.73;45.26;101249.34;5051812;28;20526;-70
2023/08/20 00:47:02;;;;;;;8.52;5.38;;;;;;;25.42;46.23;101248.22;5052054;28;20381;-70
2023/08/20 00:49:29;;;;;;;7.25;5.30;;;;;;;25.25;46.63;101242.09;5052356;28;20381;-70
2023/08/20 00:51:55;;;;;;;7.65;5.50;;;;;;;25.32;46.53;101248.94;5052211;28;20409;-70
2023/08/20 00:54:22;;;;;;;7.28;5.53;;;;;;;25.42;46.30;101245.50;5052068;28;20749;-71
2023/08/20 00:56:50;;;;;;;8.25;5.82;;;;;;;25.34;46.56;101245.97;5051995;28;20795;-70
2023/08/20 00:59:16;;;;;;;9.55;5.43;;;;;;;25.19;47.00;101247.44;5051904;28;20439;-71
2023/08/20 01:01:42;;;;;;;7.65;5.32;;;;;;;25.11;47.16;101238.91;5051664;28;20381;-70
2023/08/20 01:04:08;;;;;;;8.18;5.78;;;;;;;25.09;47.11;101246.50;5051721;28;20416;-70
2023/08/20 01:06:46;;;;;;;8.33;5.33;;;;;;;25.18;46.83;101234.13;5051818;28;20442;-70
2023/08/20 01:09:40;;;;;;;8.57;5.40;;;;;;;25.27;46.78;101246.19;5051843;28;20730;-70
2023/08/20 01:12:06;;;;;;;10.23;5.55;;;;;;;25.23;46.83;101241.47;5051661;28;20482;-70
2023/08/20 01:14:32;;;;;;;10.03;5.63;;;;;;;25.15;46.99;101245.47;5051702;28;20368;-71
2023/08/20 01:16:57;;;;;;;8.05;5.55;;;;;;;25.01;47.22;101245.03;5051408;28;20389;-70
2023/08/20 01:19:23;;;;;;;10.20;5.50;;;;;;;24.91;47.40;101244.94;5051692;28;20726;-71
2023/08/20 01:22:00;;;;;;;8.02;5.38;;;;;;;24.86;47.62;101250.28;5051596;28;20388;-71
2023/08/20 01:24:47;;;;;;;10.02;4.88;;;;;;;24.78;47.65;101248.84;5051358;28;20408;-71
2023/08/20 01:27:31;;;;;;;8.77;5.40;;;;;;;24.70;47.63;101249.28;5051595;28;20764;-70
2023/08/20 01:29:58;;;;;;;9.10;5.60;;;;;;;24.66;47.78;101248.97;5051452;28;20726;-70
2023/08/20 01:32:24;;;;;;;9.63;5.22;;;;;;;24.66;47.73;101253.56;5057254;28;20481;-71
2023/08/20 01:34:49;;;;;;;8.80;5.20;;;;;;;24.67;47.72;101250.59;5059381;28;20376;-71
2023/08/20 01:37:16;;;;;;;10.45;5.35;;;;;;;24.77;47.50;101256.13;5057545;28;20377;-71
2023/08/20 01:39:41;;;;;;;9.95;5.47;;;;;;;24.84;47.27;101258.66;5051434;28;20388;-70
2023/08/20 01:42:07;;;;;;;7.87;5.23;;;;;;;24.76;47.50;101261.84;5051448;28;20380;-70
2023/08/20 01:44:33;;;;;;;8.82;5.57;;;;;;;24.67;47.59;101258.75;5050805;28;20761;-70
2023/08/20 01:46:58;;;;;;;8.13;5.60;;;;;;;24.64;47.68;101253.00;5051460;28;20467;-71
2023/08/20 01:49:24;;;;;;;7.63;5.40;;;;;;;24.49;48.08;101257.13;5051040;28;20758;-71
2023/08/20 01:51:49;;;;;;;9.95;5.50;;;;;;;24.56;48.01;101248.81;5050963;28;20380;-71
2023/08/20 01:54:14;;;;;;;7.90;5.17;;;;;;;24.63;47.68;101254.88;5050962;28;20384;-71
2023/08/20 01:56:40;;;;;;;6.43;5.03;;;;;;;24.73;47.44;101255.00;5050521;28;20376;-71
2023/08/20 01:59:05;;;;;;;9.55;5.30;;;;;;;24.78;47.19;101251.56;5050689;28;20387;-71
2023/08/20 02:01:31;;;;;;;6.93;5.17;;;;;;;24.82;47.23;101252.69;5051164;28;20888;-71
2023/08/20 02:03:57;;;;;;;7.50;5.30;;;;;;;24.73;47.16;101252.31;5050665;28;20432;-71
2023/08/20 02:06:22;;;;;;;8.85;5.20;;;;;;;24.72;47.33;101256.09;5050887;28;20475;-71
2023/08/20 02:08:48;;;;;;;7.57;5.37;;;;;;;24.63;47.67;101260.28;5050764;28;20780;-71
2023/08/20 02:11:13;;;;;;;9.57;5.40;;;;;;;24.47;48.10;101255.72;5050698;28;20380;-71
2023/08/20 02:13:39;;;;;;;10.50;5.50;;;;;;;24.39;48.36;101259.66;5050429;28;20381;-71
2023/08/20 02:16:04;;;;;;;12.85;5.60;;;;;;;24.39;48.19;101252.34;5050680;28;20389;-71
2023/08/20 02:18:30;;;;;;;7.67;5.40;;;;;;;24.28;48.41;101256.00;5050605;28;20446;-71
2023/08/20 02:20:56;;;;;;;8.73;5.07;;;;;;;24.38;48.33;101252.59;5050594;28;20891;-71
2023/08/20 02:23:22;;;;;;;8.48;5.35;;;;;;;24.36;48.36;101258.28;5050675;28;20381;-71
2023/08/20 02:25:47;;;;;;;10.40;5.63;;;;;;;24.21;48.56;101247.22;5050433;28;20388;-71
2023/08/20 02:28:13;;;;;;;8.82;5.75;;;;;;;24.28;48.77;101247.06;5050152;28;20388;-71
2023/08/20 02:30:43;;;;;;;9.43;5.40;;;;;;;24.31;48.52;101249.25;5050393;28;20457;-71
2023/08/20 02:33:09;;;;;;;9.88;5.72;;;;;;;24.24;48.70;101254.84;5050338;28;20471;-71
2023/08/20 02:35:36;;;;;;;8.52;5.63;;;;;;;23.99;49.67;101258.00;5050388;28;20922;-71
2023/08/20 02:38:01;;;;;;;9.30;5.20;;;;;;;23.73;50.38;101262.13;5050337;28;20663;-71
2023/08/20 02:40:27;;;;;;;8.60;5.55;;;;;;;23.69;50.41;101264.50;5050354;28;20388;-71
2023/08/20 02:42:52;;;;;;;8.43;5.30;;;;;;;23.75;50.14;101263.53;5049974;28;20388;-71
2023/08/20 02:45:18;;;;;;;9.40;5.57;;;;;;;23.83;50.12;101260.44;5050249;28;20397;-71
2023/08/20 02:47:43;;;;;;;9.83;5.70;;;;;;;23.90;49.96;101271.13;5050410;28;20485;-71
2023/08/20 02:50:09;;;;;;;8.07;5.47;;;;;;;23.87;49.78;101268.88;5050930;28;20387;-71
2023/08/20 02:52:34;;;;;;;7.10;5.33;;;;;;;23.78;50.28;101281.97;5050726;28;20846;-71
2023/08/20 02:55:00;;;;;;;9.43;6.00;;;;;;;23.79;50.29;101272.78;5050841;28;20883;-71
2023/08/20 02:57:25;;;;;;;7.45;5.40;;;;;;;23.67;50.57;101282.88;5050464;28;20392;-71
2023/08/20 02:59:51;;;;;;;8.67;5.70;;;;;;;23.62;50.83;101278.19;5050625;28;20380;-71
2023/08/20 03:02:17;;;;;;;8.17;5.50;;;;;;;23.68;50.56;101276.41;5050598;28;20381;-72
2023/08/20 03:04:43;;;;;;;8.48;5.38;;;;;;;23.75;50.30;101271.66;5050521;28;20404;-72
2023/08/20 03:07:08;;;;;;;7.88;5.47;;;;;;;23.87;50.01;101270.78;5050546;28;20376;-71
2023/08/20 03:09:34;;;;;;;7.47;5.33;;;;;;;23.87;50.14;101262.66;5053809;28;20385;-71
2023/08/20 03:11:59;;;;;;;7.47;5.15;;;;;;;23.81;50.33;101262.56;5054346;28;20482;-71
2023/08/20 03:14:25;;;;;;;6.55;5.70;;;;;;;23.72;50.38;101264.00;5054270;28;20530;-71
2023/08/20 03:16:50;;;;;;;12.20;5.83;;;;;;;23.75;50.31;101277.06;5054563;28;20446;-71
2023/08/20 03:19:16;;;;;;;9.80;5.57;;;;;;;23.74;50.29;101266.47;5054658;28;20441;-72
2023/08/20 03:21:41;;;;;;;11.40;5.40;;;;;;;23.76;50.27;101269.75;5054509;28;20391;-71
2023/08/20 03:24:08;;;;;;;9.87;5.50;;;;;;;23.76;50.36;101275.16;5054356;28;20409;-72
2023/08/20 03:26:34;;;;;;;9.32;5.75;;;;;;;23.76;50.14;101265.16;5054354;28;20388;-72
2023/08/20 03:28:59;;;;;;;10.63;5.73;;;;;;;23.71;50.52;101273.19;5054346;28;20392;-71
2023/08/20 03:31:25;;;;;;;8.60;5.40;;;;;;;23.59;50.86;101275.16;5054473;28;20423;-71
2023/08/20 03:33:50;;;;;;;9.75;5.85;;;;;;;23.41;51.09;101278.88;5054292;28;20381;-72
2023/08/20 03:36:16;;;;;;;9.40;5.53;;;;;;;23.38;51.39;101282.88;5054566;28;20376;-71
2023/08/20 03:38:42;;;;;;;8.10;5.43;;;;;;;23.44;51.26;101281.09;5054282;28;20841;-72
2023/08/20 03:41:07;;;;;;;7.37;5.47;;;;;;;23.41;51.33;101279.69;5053781;28;20413;-71
2023/08/20 03:43:33;;;;;;;8.50;5.60;;;;;;;23.31;51.65;101284.09;5054044;28;20804;-72
2023/08/20 03:45:58;;;;;;;9.13;5.43;;;;;;;23.33;51.73;101290.09;5053796;28;20450;-73
2023/08/20 03:48:24;;;;;;;8.20;5.77;;;;;;;23.39;51.52;101289.94;5053671;28;20384;-72
2023/08/20 03:50:49;;;;;;;7.95;5.70;;;;;;;23.33;51.29;101292.78;5053574;28;20467;-71
2023/08/20 03:53:15;;;;;;;9.77;6.00;;;;;;;23.36;51.46;101289.59;5053714;28;20480;-71
2023/08/20 03:55:41;;;;;;;10.07;6.00;;;;;;;23.34;51.28;101284.44;5053298;28;20377;-72
2023/08/20 03:58:07;;;;;;;8.05;6.03;;;;;;;23.39;51.38;101279.13;5053445;28;20385;-71
2023/08/20 04:00:35;;;;;;;9.05;6.20;;;;;;;23.46;50.96;101278.97;5049742;28;20705;-71
2023/08/20 04:03:00;;;;;;;10.95;6.13;;;;;;;23.59;50.89;101289.50;5033839;28;20469;-71
2023/08/20 04:05:26;;;;;;;11.80;6.07;;;;;;;23.60;50.73;101293.84;5033559;28;20596;-71
2023/08/20 04:07:51;;;;;;;8.17;5.60;;;;;;;23.58;51.03;101295.97;5034345;28;21370;-72
2023/08/20 04:10:17;;;;;;;8.20;5.93;;;;;;;23.60;51.08;101295.72;5032663;28;20789;-71
2023/08/20 04:12:42;;;;;;;9.00;6.20;;;;;;;23.69;50.59;101305.09;5032371;28;20394;-72
2023/08/20 04:15:08;;;;;;;9.47;7.03;;;;;;;23.71;50.64;101299.44;5049873;28;20827;-71
2023/08/20 04:17:34;;;;;;;11.65;7.25;;;;;;;23.76;50.73;101300.34;5033620;28;20378;-71
2023/08/20 04:19:59;;;;;;;10.40;6.50;;;;;;;23.66;51.03;101297.47;5048331;28;20385;-71
2023/08/20 04:22:25;;;;;;;10.13;6.80;;;;;;;23.77;50.81;101296.59;5054516;28;20737;-71
2023/08/20 04:24:50;;;;;;;11.52;6.95;;;;;;;23.89;50.34;101293.81;5053178;28;20423;-71
2023/08/20 04:27:16;;;;;;;10.13;7.13;;;;;;;23.95;50.52;101294.72;5053166;28;20388;-72
2023/08/20 04:29:41;;;;;;;9.05;6.97;;;;;;;23.88;50.57;101303.03;5053157;28;20452;-72
2023/08/20 04:32:07;;;;;;;8.13;6.13;;;;;;;23.77;50.84;101304.72;5056973;28;20383;-72
2023/08/20 04:34:32;;;;;;;10.10;6.73;;;;;;;23.76;50.75;101305.75;5073546;28;20375;-71
2023/08/20 04:36:58;;;;;;;9.67;6.33;;;;;;;23.89;50.61;101314.69;5073530;28;20723;-70
2023/08/20 04:39:23;;;;;;;8.30;5.68;;;;;;;24.02;50.43;101312.47;5073582;28;20382;-70
2023/08/20 04:41:49;;;;;;;8.23;6.00;;;;;;;24.09;50.37;101300.66;5072952;28;20870;-70
2023/08/20 04:44:14;;;;;;;11.77;6.60;;;;;;;24.27;49.82;101307.72;5072975;28;20399;-70
2023/08/20 04:46:40;;;;;;;11.20;7.20;;;;;;;24.36;49.50;101304.34;5072992;28;20393;-70
2023/08/20 04:49:05;;;;;;;9.50;7.00;;;;;;;24.40;49.64;101310.09;5072922;28;20371;-71
2023/08/20 04:51:31;;;;;;;8.77;6.57;;;;;;;24.53;49.30;101307.06;5073218;28;20379;-70
2023/08/20 04:53:56;;;;;;;9.40;6.88;;;;;;;24.69;49.01;101310.81;5072554;28;20457;-71
2023/08/20 04:56:22;;;;;;;11.13;6.83;;;;;;;24.82;48.69;101319.66;5072878;28;20421;-70
2023/08/20 04:58:47;;;;;;;12.23;7.23;;;;;;;24.92;48.44;101320.63;5072979;28;20393;-71
2023/08/20 05:01:13;;;;;;;10.00;6.80;;;;;;;25.05;48.18;101316.72;5073144;28;20378;-71
2023/08/20 05:03:38;;;;;;;10.13;6.60;;;;;;;25.15;48.21;101326.84;5072377;28;20426;-71
2023/08/20 05:06:04;;;;;;;12.57;8.00;;;;;;;25.22;48.11;101322.06;5072586;28;20415;-72
2023/08/20 05:08:29;;;;;;;9.45;6.28;;;;;;;25.18;48.01;101315.50;5072462;28;20466;-70
2023/08/20 05:10:55;;;;;;;10.47;6.50;;;;;;;25.16;48.09;101325.78;5072689;28;20946;-70
2023/08/20 05:13:20;;;;;;;9.50;6.63;;;;;;;25.15;48.29;101319.53;5072496;28;20386;-72
2023/08/20 05:15:46;;;;;;;10.17;6.50;;;;;;;25.27;48.09;101321.34;5072625;28;20759;-69
2023/08/20 05:18:12;;;;;;;10.75;6.35;;;;;;;25.49;47.63;101326.72;5072329;28;20444;-69
2023/08/20 05:20:37;;;;;;;10.00;6.93;;;;;;;25.60;47.30;101328.47;5072150;28;20831;-70
2023/08/20 05:23:04;;;;;;;11.05;7.10;;;;;;;25.68;47.28;101330.75;5071843;28;20375;-69
2023/08/20 05:25:29;;;;;;;12.23;8.13;;;;;;;25.85;47.10;101343.38;5072154;28;20483;-70
2023/08/20 05:27:54;;;;;;;13.90;9.13;;;;;;;25.86;47.02;101340.41;5072006;28;20722;-70
2023/08/20 05:30:20;;;;;;;12.93;8.63;;;;;;;25.87;46.92;101338.50;5072000;28;20386;-70
2023/08/20 05:32:45;;;;;;;12.37;8.00;;;;;;;25.76;47.04;101338.41;5064648;28;20396;-69
2023/08/20 05:35:11;;;;;;;11.93;8.23;;;;;;;25.87;46.80;101343.94;5051768;28;20835;-69
2023/08/20 05:37:36;;;;;;;11.70;8.47;;;;;;;26.07;46.50;101355.06;5051621;28;20392;-68
2023/08/20 05:40:02;;;;;;;11.27;7.70;;;;;;;26.18;46.75;101349.69;5050971;28;20472;-69
2023/08/20 05:42:28;;;;;;;9.70;7.35;;;;;;;26.23;46.37;101355.97;5051228;28;20385;-69
2023/08/20 05:44:54;;;;;;;9.93;7.50;;;;;;;26.33;46.24;101364.22;5051568;28;20784;-71
2023/08/20 05:47:19;;;;;;;14.80;9.98;;;;;;;26.23;46.49;101363.31;5052012;28;20404;-70
2023/08/20 05:49:45;;;;;;;20.93;13.10;;;;;;;26.31;46.30;101371.81;5051548;28;20373;-70
2023/08/20 05:52:10;;;;;;;17.30;9.93;;;;;;;26.45;46.42;101372.19;5050982;28;20392;-69
2023/08/20 05:54:36;;;;;;;11.20;7.97;;;;;;;26.42;46.32;101380.06;5051563;28;20888;-69
2023/08/20 05:57:02;;;;;;;9.23;6.68;;;;;;;26.26;46.38;101379.94;5051533;28;20377;-69
2023/08/20 05:59:27;;;;;;;9.77;7.03;;;;;;;26.28;46.67;101371.50;5051390;28;20458;-69
2023/08/20 06:01:54;;;;;;;11.05;6.75;;;;;;;26.39;46.40;101378.66;5051515;28;20389;-69
2023/08/20 06:04:20;;;;;;;12.25;7.30;;;;;;;26.46;46.33;101375.72;5051316;28;20416;-69
2023/08/20 06:06:45;;;;;;;10.18;6.80;;;;;;;26.60;45.99;101376.94;5050949;28;20695;-70
2023/08/20 06:09:11;;;;;;;8.87;6.43;;;;;;;26.69;46.00;101380.00;5051435;28;21108;-69
2023/08/20 06:11:36;;;;;;;13.23;7.83;;;;;;;26.88;46.07;101385.81;5049537;28;20380;-69
2023/08/20 06:14:02;;;;;;;10.57;7.43;;;;;;;27.07;45.64;101391.66;5031951;28;20461;-69
2023/08/20 06:16:28;;;;;;;13.63;6.90;;;;;;;27.09;45.27;101384.03;5050045;28;20377;-71
2023/08/20 06:18:53;;;;;;;11.27;6.30;;;;;;;27.09;45.22;101390.28;5051430;28;20377;-69
2023/08/20 06:21:19;;;;;;;12.00;6.80;;;;;;;27.21;45.50;101389.28;5050835;28;20933;-71
2023/08/20 06:23:44;;;;;;;8.55;6.72;;;;;;;27.39;44.87;101386.09;5051593;28;20450;-70
2023/08/20 06:26:09;;;;;;;10.23;6.85;;;;;;;27.50;44.65;101381.50;5049845;28;20866;-71
2023/08/20 06:28:35;;;;;;;10.43;6.60;;;;;;;27.51;44.43;101387.78;5050368;28;20373;-70
2023/08/20 06:31:00;;;;;;;9.07;6.00;;;;;;;27.54;44.06;101377.16;5050523;28;20419;-70
2023/08/20 06:33:26;;;;;;;10.70;6.20;;;;;;;27.69;43.28;101381.00;5050681;28;20373;-70
2023/08/20 06:35:51;;;;;;;8.88;6.43;;;;;;;27.99;43.22;101389.28;5050717;28;20377;-70
2023/08/20 06:38:17;;;;;;;8.15;5.60;;;;;;;28.04;42.12;101391.19;5064105;28;20379;-72
2023/08/20 06:40:42;;;;;;;7.33;5.60;;;;;;;28.11;41.84;101382.72;5071372;28;20371;-72
2023/08/20 06:43:08;;;;;;;9.37;6.00;;;;;;;28.15;41.43;101381.13;5051684;28;20440;-70
2023/08/20 06:45:33;;;;;;;9.93;5.97;;;;;;;28.42;41.16;101391.75;5031348;28;20413;-70
2023/08/20 06:47:59;;;;;;;7.27;5.50;;;;;;;28.69;40.33;101385.22;5030878;28;20763;-71
2023/08/20 06:50:24;;;;;;;8.20;5.43;;;;;;;28.82;40.55;101400.19;5030779;28;20389;-70
2023/08/20 06:52:50;;;;;;;9.23;5.30;;;;;;;28.85;39.99;101394.19;5029775;28;20370;-70
2023/08/20 06:55:15;;;;;;;13.23;6.17;;;;;;;28.87;40.17;101394.72;5030644;28;20837;-70
2023/08/20 06:57:41;;;;;;;9.17;6.00;;;;;;;28.76;40.13;101399.38;5029714;28;20374;-70
2023/08/20 07:00:07;;;;;;;8.33;5.63;;;;;;;28.97;40.42;101403.69;4999691;28;20885;-69
2023/08/20 07:02:32;;;;;;;8.15;5.43;;;;;;;29.22;40.25;101396.53;5060781;28;20982;-70
2023/08/20 07:04:58;;;;;;;8.67;5.90;;;;;;;29.37;39.50;101403.84;5049537;28;20491;-70
2023/08/20 07:07:23;;;;;;;11.07;6.63;;;;;;;29.51;39.27;101402.16;5050571;28;20450;-70
2023/08/20 07:09:48;;;;;;;11.80;6.10;;;;;;;29.52;39.30;101402.97;5050574;28;20450;-69
2023/08/20 07:12:14;;;;;;;7.25;6.20;;;;;;;29.31;39.56;101394.03;5048997;28;20461;-70
2023/08/20 07:14:39;;;;;;;8.32;5.93;;;;;;;29.52;39.68;101406.50;5050320;28;20368;-70
2023/08/20 07:17:05;;;;;;;9.57;6.03;;;;;;;29.71;38.95;101395.75;5065798;28;20726;-71
2023/08/20 07:19:30;;;;;;;9.10;6.13;;;;;;;29.81;38.59;101394.88;5049926;28;20419;-70
2023/08/20 07:21:56;;;;;;;11.17;6.20;;;;;;;29.79;38.58;101391.63;5050287;28;21114;-70
2023/08/20 07:24:29;;;;;;;10.73;6.00;;;;;;;29.86;38.66;101391.31;5050246;28;20475;-70
2023/08/20 07:26:59;;;;;;;10.40;6.20;;;;;;;29.95;38.58;101391.53;5058809;28;20375;-69
2023/08/20 07:29:25;;;;;;;8.63;5.60;;;;;;;30.13;38.43;101390.84;5073582;28;20363;-71
2023/08/20 07:31:51;;;;;;;9.47;5.80;;;;;;;30.21;38.89;101387.47;5070224;28;20450;-71
2023/08/20 07:34:17;;;;;;;9.52;5.93;;;;;;;30.43;38.56;101381.59;5069728;28;20996;-70
2023/08/20 07:36:42;;;;;;;8.70;6.50;;;;;;;30.52;38.30;101383.69;5070676;28;20779;-71
2023/08/20 07:39:08;;;;;;;10.37;6.60;;;;;;;30.52;37.35;101378.22;5071908;28;20375;-70
2023/08/20 07:41:34;;;;;;;8.35;6.25;;;;;;;30.55;37.77;101385.84;5071966;28;20645;-70
2023/08/20 07:43:59;;;;;;;11.27;6.20;;;;;;;30.60;38.04;101380.34;5070928;28;20435;-71
2023/08/20 07:46:25;;;;;;;9.00;6.10;;;;;;;30.75;37.55;101371.16;5070245;28;20462;-70
2023/08/20 07:48:50;;;;;;;8.17;5.80;;;;;;;30.75;37.10;101373.88;5069260;28;20405;-70
2023/08/20 07:51:16;;;;;;;9.23;6.00;;;;;;;30.76;36.97;101372.78;5069647;28;20390;-69
2023/08/20 07:53:41;;;;;;;9.80;5.77;;;;;;;31.08;36.49;101368.59;5070022;28;20363;-70
2023/08/20 07:56:08;;;;;;;7.87;5.40;;;;;;;31.13;36.65;101371.28;5072000;28;20783;-70
2023/08/20 07:58:34;;;;;;;7.65;5.20;;;;;;;31.16;37.13;101370.69;5073243;28;20917;-70
2023/08/20 08:00:59;;;;;;;9.20;5.40;;;;;;;31.25;36.38;101372.47;5073202;28;20378;-70
2023/08/20 08:03:28;;;;;;;8.47;5.20;;;;;;;31.38;35.97;101375.63;5072829;28;20445;-70
2023/08/20 08:05:55;;;;;;;8.07;5.45;;;;;;;31.55;35.80;101367.75;5073027;28;20422;-71
2023/08/20 08:08:21;;;;;;;10.70;5.70;;;;;;;31.63;35.57;101358.84;5073032;28;20375;-71
2023/08/20 08:10:46;;;;;;;7.30;5.23;;;;;;;31.73;35.52;101357.88;5072994;28;20383;-71
2023/08/20 08:13:13;;;;;;;7.93;4.97;;;;;;;31.86;35.63;101364.53;5073055;28;20464;-70
2023/08/20 08:15:39;;;;;;;7.43;5.30;;;;;;;31.95;35.50;101354.50;5073033;28;20433;-70
2023/08/20 08:18:05;;;;;;;7.65;4.90;;;;;;;31.85;34.48;101359.34;5072772;28;20391;-71
2023/08/20 08:20:31;;;;;;;8.68;5.35;;;;;;;31.86;34.27;101364.53;5072988;28;20377;-71
2023/08/20 08:22:56;;;;;;;8.60;5.20;;;;;;;31.73;34.20;101363.38;5072850;28;20478;-71
2023/08/20 08:25:22;;;;;;;10.27;5.40;;;;;;;31.75;34.18;101355.66;5072754;28;20891;-71
2023/08/20 08:27:48;;;;;;;9.00;5.00;;;;;;;32.02;33.59;101362.38;5072761;28;20379;-71
2023/08/20 08:30:14;;;;;;;6.68;4.80;;;;;;;32.29;33.81;101358.09;5072757;28;20371;-71
2023/08/20 08:32:40;;;;;;;7.20;5.13;;;;;;;32.33;33.93;101354.44;5072755;28;20445;-70
2023/08/20 08:35:06;;;;;;;9.20;5.05;;;;;;;32.42;34.00;101345.53;5072619;28;20720;-71
2023/08/20 08:37:31;;;;;;;8.20;5.60;;;;;;;32.42;34.44;101348.28;5072665;28;20762;-70
2023/08/20 08:39:57;;;;;;;5.88;4.97;;;;;;;32.49;34.20;101348.69;5072647;28;20379;-70
2023/08/20 08:42:24;;;;;;;7.03;5.32;;;;;;;32.48;34.26;101341.56;5073944;28;20372;-70
2023/08/20 08:44:52;;;;;;;7.55;4.68;;;;;;;32.62;33.63;101347.91;5071427;28;20485;-70
2023/08/20 08:47:22;;;;;;;6.63;4.80;;;;;;;32.58;33.37;101350.44;5073449;28;20379;-70
2023/08/20 08:49:48;;;;;;;8.07;5.10;;;;;;;32.62;33.56;101342.41;5072793;28;20386;-71
2023/08/20 08:52:14;;;;;;;11.20;5.05;;;;;;;32.74;33.44;101348.22;5070784;28;20787;-71
2023/08/20 08:54:39;;;;;;;9.93;5.50;;;;;;;32.80;33.73;101346.19;5072148;28;20382;-71
2023/08/20 08:57:05;;;;;;;7.93;5.10;;;;;;;32.87;33.13;101348.53;5072477;28;20368;-71
2023/08/20 08:59:31;;;;;;;6.68;4.97;;;;;;;32.93;33.66;101350.84;5071905;28;20466;-70
2023/08/20 09:01:57;;;;;;;22.25;11.27;;;;;;;33.03;32.92;101354.53;5071986;28;20394;-69
2023/08/20 09:04:23;;;;;;;7.90;4.80;;;;;;;33.06;33.28;101356.63;5071826;28;20414;-70
2023/08/20 09:06:51;;;;;;;10.43;5.30;;;;;;;32.91;32.74;101346.78;5071663;28;20382;-69
2023/08/20 09:09:21;;;;;;;7.90;5.35;;;;;;;33.04;32.41;101345.94;5072241;28;20375;-70
2023/08/20 09:11:47;;;;;;;6.90;5.20;;;;;;;33.25;32.39;101342.81;5071977;28;20871;-70
2023/08/20 09:14:30;;;;;;;8.07;4.93;;;;;;;33.36;32.22;101338.72;5071857;28;20382;-70
2023/08/20 09:16:57;;;;;;;8.03;4.87;;;;;;;33.60;31.31;101334.88;5071821;28;20974;-70
2023/08/20 09:19:23;;;;;;;8.50;5.00;;;;;;;33.73;31.30;101336.78;5071804;28;20378;-70
2023/08/20 09:21:49;;;;;;;9.02;5.20;;;;;;;33.92;31.57;101333.03;5071830;28;20665;-70
2023/08/20 09:24:15;;;;;;;10.13;5.40;;;;;;;33.98;31.16;101331.75;5071761;28;20490;-70
2023/08/20 09:26:45;;;;;;;7.43;4.85;;;;;;;34.03;31.00;101329.72;5071757;28;20482;-71
2023/08/20 09:29:11;;;;;;;9.48;4.93;;;;;;;34.18;30.89;101328.53;5071230;28;20376;-70
2023/08/20 09:31:38;;;;;;;8.23;4.67;;;;;;;34.33;30.88;101329.25;5071749;28;20405;-69
2023/08/20 09:34:04;;;;;;;9.52;5.25;;;;;;;34.39;30.82;101326.03;5071457;28;20371;-70
2023/08/20 09:36:32;;;;;;;6.73;4.97;;;;;;;34.33;30.79;101329.25;5071528;28;20464;-70
2023/08/20 09:38:57;;;;;;;6.63;4.80;;;;;;;34.32;30.67;101331.19;5071762;28;20439;-70
2023/08/20 09:41:23;;;;;;;7.80;5.20;;;;;;;34.43;30.07;101328.97;5071409;28;20374;-71
2023/08/20 09:43:55;;;;;;;9.05;5.28;;;;;;;34.51;30.08;101321.88;5070913;28;20403;-70
2023/08/20 09:46:24;;;;;;;5.78;4.53;;;;;;;34.63;30.03;101319.34;5071359;28;20728;-70
2023/08/20 09:48:54;;;;;;;7.63;4.88;;;;;;;34.57;29.09;101317.84;5071338;28;20371;-70
2023/08/20 09:51:25;;;;;;;9.18;5.10;;;;;;;34.59;29.67;101313.66;5071253;28;20466;-70
2023/08/20 09:54:00;;;;;;;7.75;4.35;;;;;;;34.61;30.17;101318.81;5071117;28;20421;-69
2023/08/20 09:56:30;;;;;;;6.00;4.47;;;;;;;34.62;29.68;101318.50;5071127;28;20536;-70
2023/08/20 09:58:58;;;;;;;7.07;4.30;;;;;;;34.66;29.39;101316.75;5070803;28;20374;-70
2023/08/20 10:01:25;;;;;;;6.97;4.63;;;;;;;34.65;30.20;101312.38;5070979;28;20379;-70
2023/08/20 10:03:51;;;;;;;7.18;5.20;;;;;;;34.55;29.69;101314.59;5070690;28;20755;-70
2023/08/20 10:06:18;;;;;;;8.13;4.90;;;;;;;34.73;29.06;101307.25;5071280;28;20387;-70
2023/08/20 10:08:46;;;;;;;7.72;4.53;;;;;;;34.83;28.78;101307.75;5070973;28;20371;-70
2023/08/20 10:11:12;;;;;;;8.43;4.82;;;;;;;34.89;28.50;101307.59;5070785;28;20539;-71
2023/08/20 10:13:37;;;;;;;8.03;4.70;;;;;;;34.82;29.05;101297.84;5070610;28;20375;-71
2023/08/20 10:16:03;;;;;;;9.07;4.90;;;;;;;34.94;28.97;101299.19;5070789;28;20367;-71
2023/08/20 10:18:29;;;;;;;6.65;4.60;;;;;;;35.02;28.97;101285.44;5070090;28;20413;-71
2023/08/20 10:20:59;;;;;;;6.40;4.83;;;;;;;35.11;28.67;101287.38;5070778;28;20458;-71
2023/08/20 10:23:25;;;;;;;9.38;4.55;;;;;;;35.03;28.19;101298.06;5070852;28;20375;-71
2023/08/20 10:25:52;;;;;;;7.73;4.93;;;;;;;35.02;28.76;101292.88;5070924;28;20397;-70
2023/08/20 10:28:24;;;;;;;9.25;5.03;;;;;;;35.17;28.80;101291.63;5070259;28;20874;-71
2023/08/20 10:31:10;;;;;;;7.18;5.22;;;;;;;35.33;29.28;101297.47;5070578;28;20489;-71
2023/08/20 10:33:49;;;;;;;7.82;4.60;;;;;;;35.35;28.96;101293.25;5047926;28;20381;-70
2023/08/20 10:36:24;;;;;;;7.97;5.07;;;;;;;35.41;28.42;101289.19;5047537;28;20373;-70
2023/08/20 10:38:50;;;;;;;11.30;5.07;;;;;;;35.44;28.99;101285.00;5049974;28;20369;-70
2023/08/20 10:41:16;;;;;;;6.80;4.97;;;;;;;35.44;28.70;101279.47;5049620;28;20385;-70
2023/08/20 10:43:49;;;;;;;11.00;5.20;;;;;;;35.44;28.98;101284.16;5065725;28;20396;-70
2023/08/20 10:46:21;;;;;;;10.32;5.13;;;;;;;35.49;29.01;101279.31;5048401;28;20377;-70
2023/08/20 10:48:50;;;;;;;8.30;5.18;;;;;;;35.45;28.88;101272.81;5050248;28;20380;-70
2023/08/20 10:51:43;;;;;;;6.93;4.97;;;;;;;35.58;28.82;101271.84;5050342;28;20438;-70
2023/08/20 10:54:10;;;;;;;8.90;5.03;;;;;;;35.60;28.46;101277.00;5030684;28;20420;-70
2023/08/20 10:56:46;;;;;;;11.40;5.35;;;;;;;35.30;28.43;101265.84;5050072;28;20426;-71
2023/08/20 10:59:27;;;;;;;7.45;4.93;;;;;;;35.32;28.63;101263.59;5050342;28;20404;-70
2023/08/20 11:01:57;;;;;;;7.82;5.13;;;;;;;35.37;28.40;101262.63;5050616;28;20853;-70
2023/08/20 11:04:28;;;;;;;9.95;4.90;;;;;;;35.54;28.27;101261.78;5044426;28;20505;-70
2023/08/20 11:06:55;;;;;;;7.13;5.03;;;;;;;35.64;27.76;101257.84;5025923;28;20391;-70
2023/08/20 11:09:26;;;;;;;6.90;4.60;;;;;;;35.58;28.49;101249.78;5030741;28;20379;-70
2023/08/20 11:11:52;;;;;;;11.15;5.05;;;;;;;35.64;28.49;101255.09;5031765;28;20377;-69
2023/08/20 11:14:19;;;;;;;6.72;4.78;;;;;;;35.63;28.55;101259.81;5029358;28;20397;-70
2023/08/20 11:16:46;;;;;;;9.88;4.75;;;;;;;35.69;28.47;101254.94;5030738;28;20439;-71
2023/08/20 11:19:13;;;;;;;8.50;4.53;;;;;;;35.76;27.87;101253.34;5029380;28;20383;-70